Tiempo atmosférico en la estación meteorológica de Cillórigo de Liébana, Tama, Cantabria (250 m.)



Fecha
DESCASC
Temp. máxima en grados centígrados (hora)
DESCASC
Temp. mínima en grados centígrados (hora)
DESCASC
Temp. media en grados centígrados
DESCASC
Racha de viento máxima en m/sg (hora)
DESCASC
Velocidad máxima media en intervalos de 10 minutos(hora)
DESCASC
Precipitaciones diarias en mm
DESCASC
Precipitaciones de 00:00 a 06:00 en mm
DESCASC
Precipitaciones de 06:00 a 12:00 en mm
DESCASC
Precipitaciones de 12:00 a 18:00 en mm
DESCASC
Precipitaciones de 18:00 a 24:00 en mm
DESCASC
20-05-2018 21.9 (14:40) 5.4 (07:20) 13.6 11.11 (17:50) 5.83 (15:20) 0 0 0 0 0
19-05-2018 22 (14:00) 7.6 (06:20) 14.8 12.78 (15:40) 6.39 (18:10) 0 0 0 0 0
18-05-2018 21.7 (16:40) 10.2 (00:00) 16 9.17 (20:00) 4.44 (17:20) 0 0 0 0 0
17-05-2018 20.7 (14:40) 12.4 (00:00) 16.6 11.67 (15:00) 5.83 (15:50) 0 0 0 0 0
16-05-2018 19.2 (16:10) 6.5 (00:00) 12.9 10.83 (17:50) 5.28 (14:30) 0 0 0 0 0
15-05-2018 18.2 (15:40) 3.6 (00:00) 10.9 12.78 (17:10) 6.39 (18:40) 0 0 0 0 0
14-05-2018 16.2 (16:30) 7.7 (00:00) 12 11.67 (19:10) 5.28 (19:20) 15.8 11 4.8 0 0
13-05-2018 15.5 (14:00) 1.6 (00:00) 8.6 10 (15:00) 5 (15:00) 0.2 0 0 0 0.2
12-05-2018 14.9 (17:20) 4.7 (00:00) 9.8 11.67 (18:00) 6.39 (18:10) 2.4 0 0 2.2 0.2
11-05-2018 21.4 (14:20) 3.7 (07:30) 12.5 12.78 (15:10) 6.39 (18:50) 0 0 0 0 0
10-05-2018 16.2 (15:10) 7.8 (00:00) 12 11.11 (16:40) 5.56 (16:20) 0 0 0 0 0
09-05-2018 18.9 (13:10) 9.9 (00:00) 14.4 11.11 (16:30) 5.83 (14:40) 0 0 0 0 0
08-05-2018 19.3 (14:50) 9.9 (00:00) 14.6 11.11 (16:40) 5.28 (15:30) 0 0 0 0 0
07-05-2018 27.2 (16:10) 9.3 (00:00) 18.3 8.89 (17:40) 5 (20:10) 0 0 0 0 0
06-05-2018 24.9 (14:50) 6.4 (00:00) 15.6 13.33 (19:10) 5.83 (17:20) 0 0 0 0 0
05-05-2018 20.3 (16:10) 2.4 (00:00) 11.3 10 (15:20) 5 (15:30) 0 0 0 0 0
04-05-2018 16.2 (16:00) 4.4 (00:00) 10.3 10 (20:20) 5 (18:20) 0 0 0 0 0
03-05-2018 14.1 (17:40) 8.8 (00:00) 11.5 -- (--) -- (--) 1.6 1.4 0.2 0 0
02-05-2018 14.8 (18:50) 7.7 (00:00) 11.3 10.56 (23:50) 4.72 (23:50) 5.4 0 0 1.8 3.6
01-05-2018 15.1 (14:10) 2.6 (03:30) 8.9 10.56 (19:20) 5.83 (16:10) 0 0 0 0 0
30-04-2018 12.2 (17:10) 5.9 (00:00) 9 9.44 (17:20) 5 (20:40) 6 0.4 2.4 2.2 1
29-04-2018 15.1 (13:40) 7.3 (00:00) 11.2 9.72 (19:00) 5.28 (18:20) 5 0.2 0 0.4 4.4
28-04-2018 11.8 (13:50) 8.1 (00:00) 10 6.94 (15:40) 3.61 (15:40) 3.2 0 0 1.4 1.8
27-04-2018 15.8 (12:00) 5.6 (00:00) 10.7 10.28 (13:40) 5.28 (12:40) 0 0 0 0 0
26-04-2018 17.1 (17:00) 9 (00:00) 13.1 9.17 (16:20) 4.72 (15:20) 0 0 0 0 0
25-04-2018 17.6 (14:30) 12.3 (00:00) 15 11.11 (17:00) 5.28 (15:20) 0 0 0 0 0
24-04-2018 24.9 (16:50) 11.9 (00:00) 18.4 11.67 (18:30) 6.11 (18:50) 0 0 0 0 0
23-04-2018 19.4 (14:50) 12.8 (00:00) 16.1 13.61 (17:40) 6.94 (18:20) 0 0 0 0 0
22-04-2018 24.3 (17:20) 8.4 (00:00) 16.3 12.78 (19:40) 5.28 (19:30) 0 0 0 0 0

Gráficas

Temp. máximas Temp. mínimas Temp. medias Precipitaciones Rachas de viento máximas Velocidades máximas media en intervalos de 10 minutos

Datos horarios

Fecha y hora oficial Temperatura (ºC) Velocidad del viento (km/h) Dirección del viento Racha (km/h) Dirección de racha Precipitación (mm) Presión (hPa) Tendencia (hPa) Humedad (%)
2018-05-21 23:00:00 15.5 3 Sudeste 6 Sur 0 -- -- 84
2018-05-21 22:00:00 17.1 0 Calma 9 Noroeste 0 -- -- 72
2018-05-21 21:00:00 18.9 5 Norte 22 Noroeste 0 -- -- 64
2018-05-21 20:00:00 19.2 9 Noroeste 24 Norte 0 -- -- 64
2018-05-21 19:00:00 18.9 5 Sur 15 Sur 0 -- -- 76
2018-05-21 18:00:00 18.4 7 Sudeste 19 Norte 0 -- -- 74
2018-05-21 17:00:00 20.9 9 Norte 28 Norte 0.2 -- -- 60
2018-05-21 16:00:00 21.3 11 Norte 27 Norte 0.2 -- -- 62
2018-05-21 15:00:00 22.2 14 Norte 29 Norte 0 -- -- 54
2018-05-21 14:00:00 22.6 12 Noroeste 31 Norte 0 -- -- 51
2018-05-21 13:00:00 22.2 14 Norte 31 Norte 0 -- -- 53
2018-05-21 12:00:00 21.3 6 Norte 18 Norte 0 -- -- 55
2018-05-21 11:00:00 17.2 0 Calma 4 Oeste 0 -- -- 72
2018-05-21 10:00:00 13.1 0 Calma 3 Norte 0 -- -- 82
2018-05-21 09:00:00 8.2 0 Calma 5 Sudoeste 0 -- -- 99
2018-05-21 08:00:00 6.6 0 Calma 0 Calma 0 -- -- 97
2018-05-21 07:00:00 6.6 0 Calma 2 Sudoeste 0 -- -- 96
2018-05-21 06:00:00 7.2 0 Calma 3 Sur 0 -- -- 96
2018-05-21 05:00:00 7.9 0 Calma 2 Sur 0 -- -- 95
2018-05-21 04:00:00 8.5 0 Calma 3 Sur 0 -- -- 94
2018-05-21 03:00:00 9.3 0 Calma 3 Oeste 0 -- -- 93
2018-05-21 02:00:00 10.2 0 Calma 3 Oeste 0 -- -- 92
2018-05-21 01:00:00 11.5 0 Calma 2 Sudoeste 0 -- -- 88
2018-05-21 00:00:00 12.8 0 Calma 6 Sur 0 -- -- 84
2018-05-20 23:00:00 14.7 4 Sur 13 Nordeste 0 -- -- 77
2018-05-20 22:00:00 16.7 6 Noroeste 22 Norte 0 -- -- 70
2018-05-20 21:00:00 17.7 12 Noroeste 35 Noroeste 0 -- -- 65
2018-05-20 20:00:00 19.4 15 Noroeste 40 Noroeste 0 -- -- 56
2018-05-20 19:00:00 20.3 15 Noroeste 40 Noroeste 0 -- -- 50
2018-05-20 18:00:00 20.7 17 Noroeste 40 Noroeste 0 -- -- 50
2018-05-20 17:00:00 21.4 17 Noroeste 39 Noroeste 0 -- -- 48
2018-05-20 16:00:00 21.3 14 Noroeste 37 Norte 0 -- -- 53
2018-05-20 15:00:00 21.7 13 Norte 26 Norte 0 -- -- 50
2018-05-20 14:00:00 21.7 10 Norte 26 Norte 0 -- -- 39
2018-05-20 13:00:00 20.7 13 Norte 25 Norte 0 -- -- 40
2018-05-20 12:00:00 19.1 4 Norte 12 Nordeste 0 -- -- 53
2018-05-20 11:00:00 15.9 0 Calma 6 Norte 0 -- -- 69
2018-05-20 10:00:00 12 0 Calma 4 Este 0 -- -- 79
2018-05-20 09:00:00 7.2 0 Calma 5 Noroeste 0 -- -- 99
2018-05-20 08:00:00 5.5 0 Calma 3 Sudoeste 0 -- -- 97
2018-05-20 07:00:00 5.5 0 Calma 2 Sur 0 -- -- 96
2018-05-20 06:00:00 6 0 Calma 3 Sudoeste 0 -- -- 95
2018-05-20 05:00:00 6.7 0 Calma 3 Sudoeste 0 -- -- 95
2018-05-20 04:00:00 7.4 0 Calma 3 Sudoeste 0 -- -- 94
2018-05-20 03:00:00 8.4 0 Calma 3 Sur 0 -- -- 92
2018-05-20 02:00:00 9.4 0 Calma 4 Sudoeste 0 -- -- 89
2018-05-20 01:00:00 10.9 0 Calma 4 Sur 0 -- -- 84
2018-05-20 00:00:00 12.7 0 Calma 7 Sur 0 -- -- 78
2018-05-19 23:00:00 14.6 4 Sur 23 Norte 0 -- -- 70
2018-05-19 22:00:00 16.8 15 Norte 30 Noroeste 0 -- -- 58
2018-05-19 21:00:00 17.5 14 Noroeste 32 Noroeste 0 -- -- 60
2018-05-19 20:00:00 19.4 16 Norte 35 Noroeste 0 -- -- 57
2018-05-19 19:00:00 20.3 19 Norte 40 Norte 0 -- -- 55
2018-05-19 18:00:00 20.8 21 Norte 38 Norte 0 -- -- 54
2018-05-19 17:00:00 21.1 22 Norte 40 Noroeste 0 -- -- 53
2018-05-19 16:00:00 21.1 20 Norte 46 Norte 0 -- -- 55
2018-05-19 15:00:00 21.6 15 Noroeste 39 Noroeste 0 -- -- 56
2018-05-19 14:00:00 22 14 Norte 31 Norte 0 -- -- 56
2018-05-19 13:00:00 21.9 12 Norte 27 Norte 0 -- -- 57
2018-05-19 12:00:00 20.3 3 Sudoeste 9 Oeste 0 -- -- 63
2018-05-19 11:00:00 16.9 2 Nordeste 5 Este 0 -- -- 71
2018-05-19 10:00:00 12.9 0 Calma 5 Este 0 -- -- 82
2018-05-19 09:00:00 9.5 3 Este 4 Este 0 -- -- 96
2018-05-19 08:00:00 7.7 0 Calma 3 Este 0 -- -- 96
2018-05-19 07:00:00 8 0 Calma 4 Sur 0 -- -- 97
2018-05-19 06:00:00 7.7 0 Calma 3 Oeste 0 -- -- 96
2018-05-19 05:00:00 8.2 0 Calma 4 Noroeste 0 -- -- 96
2018-05-19 04:00:00 8.8 0 Calma 3 Oeste 0 -- -- 95
2018-05-19 03:00:00 9.3 0 Calma 3 Oeste 0 -- -- 94
2018-05-19 02:00:00 10.2 0 Calma 4 Sudoeste 0 -- -- 92
2018-05-19 01:00:00 11.4 0 Calma 3 Oeste 0 -- -- 89
2018-05-19 00:00:00 13.2 0 Calma 7 Sur 0 -- -- 85
2018-05-18 23:00:00 15 4 Sur 14 Noroeste 0 -- -- 81
2018-05-18 22:00:00 16.8 8 Norte 25 Noroeste 0 -- -- 75
2018-05-18 21:00:00 17.6 15 Noroeste 32 Norte 0 -- -- 71
2018-05-18 20:00:00 19.3 12 Norte 33 Norte 0 -- -- 65
2018-05-18 19:00:00 20.4 15 Norte 30 Norte 0 -- -- 62
2018-05-18 18:00:00 20.9 13 Noroeste 28 Norte 0 -- -- 60
2018-05-18 17:00:00 21.1 10 Norte 26 Norte 0 -- -- 59
2018-05-18 16:00:00 20.9 11 Norte 24 Noroeste 0 -- -- 58
2018-05-18 15:00:00 19.6 8 Norte 23 Norte 0 -- -- 62
2018-05-18 14:00:00 19.1 9 Noroeste 19 Norte 0 -- -- 64
2018-05-18 13:00:00 18.8 7 Norte 21 Noroeste 0 -- -- 65
2018-05-18 12:00:00 16.7 3 Nordeste 9 Noroeste 0 -- -- 71
2018-05-18 11:00:00 14 3 Norte 5 Noroeste 0 -- -- 83
2018-05-18 10:00:00 12.6 2 Norte 6 Sudeste 0 -- -- 86
2018-05-18 09:00:00 12 5 Sur 9 Sur 0 -- -- 89
2018-05-18 08:00:00 11.8 4 Sur 10 Sur 0 -- -- 89
2018-05-18 07:00:00 11.7 3 Sur 8 Sur 0 -- -- 89
2018-05-18 06:00:00 11.5 3 Sudeste 8 Sudeste 0 -- -- 88
2018-05-18 05:00:00 11.2 4 Sur 7 Sudoeste 0 -- -- 91
2018-05-18 04:00:00 10.5 0 Calma 4 Sudoeste 0 -- -- 94
2018-05-18 03:00:00 10.7 0 Calma 4 Sudeste 0 -- -- 91
2018-05-18 02:00:00 11.7 0 Calma 4 Sudoeste 0 -- -- 89
2018-05-18 01:00:00 12.9 0 Calma 12 Nordeste 0 -- -- 86
2018-05-18 00:00:00 14.1 4 Norte 12 Nordeste 0 -- -- 82
2018-05-17 23:00:00 16.2 6 Nordeste 11 Este 0 -- -- 73
2018-05-17 22:00:00 17.1 4 Norte 24 Norte 0 -- -- 67
2018-05-17 21:00:00 17.6 12 Norte 25 Norte 0 -- -- 64
2018-05-17 20:00:00 18.4 11 Norte 28 Noroeste 0 -- -- 61
2018-05-17 19:00:00 18.8 9 Norte 26 Noroeste 0 -- -- 58
2018-05-17 18:00:00 20.2 13 Noroeste 36 Noroeste 0 -- -- 55
2018-05-17 17:00:00 20.3 17 Noroeste 37 Norte 0 -- -- 55
2018-05-17 16:00:00 20 19 Norte 40 Norte 0 -- -- 59
2018-05-17 15:00:00 20.4 15 Norte 42 Norte 0 -- -- 59
2018-05-17 14:00:00 20.4 12 Noroeste 32 Noroeste 0 -- -- 57
2018-05-17 13:00:00 20.1 14 Norte 28 Norte 0 -- -- 59
2018-05-17 12:00:00 18.4 3 Sudoeste 7 Noroeste 0 -- -- 66
2018-05-17 11:00:00 16.4 4 Sudeste 9 Sur 0 -- -- 66
2018-05-17 10:00:00 14.4 3 Noroeste 7 Oeste 0 -- -- 74
2018-05-17 09:00:00 13.2 5 Sur 8 Sudeste 0 -- -- 79
2018-05-17 08:00:00 12.5 0 Calma 5 Sur 0 -- -- 86
2018-05-17 07:00:00 12.5 0 Calma 5 Sur 0 -- -- 89
2018-05-17 06:00:00 12.5 0 Calma 3 Oeste 0 -- -- 91
2018-05-17 05:00:00 12.6 0 Calma 3 Sudeste 0 -- -- 90
2018-05-17 04:00:00 12.7 0 Calma 3 Noroeste 0 -- -- 90
2018-05-17 03:00:00 12.7 2 Noroeste 4 Sudeste 0 -- -- 89
2018-05-17 02:00:00 12.9 3 Sudeste 5 Sudeste 0 -- -- 85
2018-05-17 01:00:00 12.8 3 Sur 7 Sur 0 -- -- 84
2018-05-17 00:00:00 12.9 5 Sur 8 Sur 0 -- -- 84
2018-05-16 23:00:00 12.8 3 Sur 18 Norte 0 -- -- 84
2018-05-16 22:00:00 13.8 10 Norte 29 Norte 0 -- -- 80
2018-05-16 21:00:00 14.6 13 Norte 33 Norte 0 -- -- 77
2018-05-16 20:00:00 16.4 11 Norte 33 Norte 0 -- -- 71
2018-05-16 19:00:00 17.3 13 Norte 38 Norte 0 -- -- 67
2018-05-16 18:00:00 18.3 18 Noroeste 39 Noroeste 0 -- -- 65
2018-05-16 17:00:00 18.8 19 Noroeste 37 Noroeste 0 -- -- 62
2018-05-16 16:00:00 19.1 15 Norte 38 Noroeste 0 -- -- 55
2018-05-16 15:00:00 18 16 Norte 39 Noroeste 0 -- -- 59
2018-05-16 14:00:00 17.6 15 Norte 31 Norte 0 -- -- 59
2018-05-16 13:00:00 17.4 8 Noroeste 17 Norte 0 -- -- 55
2018-05-16 12:00:00 16.3 6 Norte 13 Nordeste 0 -- -- 56
2018-05-16 11:00:00 14.5 2 Nordeste 7 Sudeste 0 -- -- 67
2018-05-16 10:00:00 11.4 0 Calma 4 Noroeste 0 -- -- 80
2018-05-16 09:00:00 9.5 0 Calma 3 Norte 0 -- -- 88
2018-05-16 08:00:00 8.4 2 Noroeste 3 Noroeste 0 -- -- 93
2018-05-16 07:00:00 7.8 0 Calma 4 Noroeste 0 -- -- 95
2018-05-16 06:00:00 7.4 0 Calma -- -- 0 -- -- 96
2018-05-16 05:00:00 6.7 0 Calma -- -- 0 -- -- 95
2018-05-16 04:00:00 6.9 0 Calma 2 Noroeste 0 -- -- 93
2018-05-16 03:00:00 7.4 0 Calma 2 Noroeste 0 -- -- 91
2018-05-16 02:00:00 8 0 Calma 2 Oeste 0 -- -- 90
2018-05-16 01:00:00 8.4 0 Calma 13 Sudeste 0 -- -- 86
2018-05-16 00:00:00 10.1 3 Sur 13 Sudeste 0 -- -- 78
2018-05-15 23:00:00 12.3 3 Nordeste 20 Noroeste 0 -- -- 68
2018-05-15 22:00:00 13.1 8 Noroeste 24 Noroeste 0 -- -- 62
2018-05-15 21:00:00 14 13 Noroeste 33 Norte 0 -- -- 63
2018-05-15 20:00:00 16.1 15 Norte 41 Norte 0 -- -- 55
2018-05-15 19:00:00 17.2 14 Norte 42 Norte 0 -- -- 52
2018-05-15 18:00:00 17.8 15 Norte 46 Norte 0 -- -- 49
2018-05-15 17:00:00 17.7 15 Norte 43 Norte 0 -- -- 55
2018-05-15 16:00:00 17.9 17 Norte 36 Noroeste 0 -- -- 51
2018-05-15 15:00:00 18 12 Noroeste 32 Norte 0 -- -- 47
2018-05-15 14:00:00 17.3 14 Noroeste 29 Noroeste 0 -- -- 48
2018-05-15 13:00:00 16.3 12 Noroeste 25 Norte 0 -- -- 47
2018-05-15 12:00:00 15.2 11 Norte 20 Noroeste 0 -- -- 53
2018-05-15 11:00:00 12.7 3 Nordeste 6 Noroeste 0 -- -- 65
2018-05-15 10:00:00 9.5 0 Calma 4 Nordeste 0 -- -- 82
2018-05-15 09:00:00 5.1 0 Calma 2 Este 0 -- -- 99
2018-05-15 08:00:00 4.2 0 Calma 3 Sudoeste 0 -- -- 97
2018-05-15 07:00:00 3.8 0 Calma 3 Oeste 0 -- -- 97
2018-05-15 06:00:00 3.9 0 Calma 3 Sudoeste 0 -- -- 96
2018-05-15 05:00:00 4.5 0 Calma 3 Noroeste 0 -- -- 96
2018-05-15 04:00:00 4.9 0 Calma 2 Oeste 0 -- -- 95
2018-05-15 03:00:00 5.5 0 Calma 3 Oeste 0 -- -- 94
2018-05-15 02:00:00 6.2 0 Calma 3 Sur 0 -- -- 93
2018-05-15 01:00:00 7.5 0 Calma 5 Sur 0 -- -- 89
2018-05-15 00:00:00 9 3 Sur 10 Sudeste 0 -- -- 85
2018-05-14 23:00:00 10.8 5 Sudeste 19 Noroeste 0 -- -- 78
2018-05-14 22:00:00 12.4 10 Norte 30 Norte 0 -- -- 70
2018-05-14 21:00:00 12.9 10 Norte 32 Norte 0 -- -- 68
2018-05-14 20:00:00 14.6 14 Norte 42 Noroeste 0 -- -- 62
2018-05-14 19:00:00 15 17 Norte 33 Norte 0 -- -- 62
2018-05-14 18:00:00 15.8 12 Norte 29 Norte 0 -- -- 59
2018-05-14 17:00:00 16.1 13 Norte 28 Norte 0 -- -- 59
2018-05-14 16:00:00 16 12 Norte 28 Norte 0 -- -- 57
2018-05-14 15:00:00 15.4 13 Norte 31 Norte 0 -- -- 60
2018-05-14 14:00:00 15.1 11 Norte 28 Nordeste 0 -- -- 64
2018-05-14 13:00:00 14.6 11 Norte 27 Norte 0 -- -- 71
2018-05-14 12:00:00 11.8 3 Sur 6 Oeste 0.2 -- -- 84
2018-05-14 11:00:00 9.3 0 Calma 6 Noroeste 1 -- -- 90
2018-05-14 10:00:00 8.3 3 Noroeste 5 Noroeste 0.6 -- -- 92
2018-05-14 09:00:00 8.1 0 Calma 6 Sudeste 0.2 -- -- 95
2018-05-14 08:00:00 7.7 4 Sur 8 Sur 1.2 -- -- 96
2018-05-14 07:00:00 7.9 3 Sur 6 Sudeste 1.6 -- -- 96
2018-05-14 06:00:00 8 0 Calma 6 Sur 2.8 -- -- 95
2018-05-14 05:00:00 8.2 4 Sur 7 Sur 2.8 -- -- 94
2018-05-14 04:00:00 8.5 2 Sur 5 Sur 1.8 -- -- 94
2018-05-14 03:00:00 8.7 3 Sur 8 Sudeste 1.6 -- -- 94
2018-05-14 02:00:00 8.7 0 Calma 4 Sur 1.2 -- -- 94
2018-05-14 01:00:00 8.9 0 Calma 3 Norte 0.8 -- -- 92
2018-05-11 20:00:00 -- -- -- -- -- -- -- -- --
2018-05-11 19:00:00 15.6 20 Noroeste 46 Noroeste 0 -- -- 68
2018-05-11 18:00:00 16.6 17 Noroeste 44 Norte 0 -- -- 69
2018-05-11 17:00:00 16.8 18 Norte 41 Noroeste 0 -- -- 71
2018-05-11 16:00:00 17.3 17 Noroeste 46 Noroeste 0 -- -- 69
2018-05-11 15:00:00 21 15 Norte 42 Norte 0 -- -- 57
2018-05-11 14:00:00 21 9 Norte 22 Nordeste 0 -- -- 55
2018-05-11 13:00:00 20.8 6 Nordeste 18 Norte 0 -- -- 50
2018-05-11 12:00:00 16.8 3 Noroeste 8 Noroeste 0 -- -- 68
2018-05-11 11:00:00 14.2 2 Noroeste 5 Este 0 -- -- 73
2018-05-11 10:00:00 11.5 2 Nordeste 4 Nordeste 0 -- -- 79
2018-05-11 09:00:00 6.2 0 Calma 3 Este 0 -- -- 98
2018-05-11 08:00:00 4.3 0 Calma 3 Sur 0 -- -- 98
2018-05-11 07:00:00 3.9 3 Nordeste 6 Este 0 -- -- 98
2018-05-11 06:00:00 4.2 0 Calma 5 Oeste 0 -- -- 96
2018-05-11 05:00:00 4.6 0 Calma 5 Sudeste 0 -- -- 96
2018-05-11 04:00:00 5.2 0 Calma 5 Este 0 -- -- 96
2018-05-11 03:00:00 5.6 2 Oeste 4 Oeste 0 -- -- 95
2018-05-11 02:00:00 6.2 0 Calma 6 Sudeste 0 -- -- 94
2018-05-11 01:00:00 7 0 Calma 4 Norte 0 -- -- 92
2018-05-11 00:00:00 7.8 0 Calma 4 Oeste 0 -- -- 90
2018-05-10 23:00:00 9.5 0 Calma 8 Sudoeste 0 -- -- 83
2018-05-10 22:00:00 11.3 0 Calma 7 Noroeste 0 -- -- 77
2018-05-10 21:00:00 13.1 6 Noroeste 13 Noroeste 0 -- -- 67
2018-05-10 20:00:00 14.9 8 Noroeste 27 Norte 0 -- -- 62
2018-05-10 19:00:00 15.5 14 Noroeste 32 Norte 0 -- -- 61
2018-05-10 18:00:00 16 13 Noroeste 32 Noroeste 0 -- -- 63
2018-05-10 17:00:00 15.9 14 Noroeste 40 Norte 0 -- -- 63
2018-05-10 16:00:00 16 15 Noroeste 31 Noroeste 0 -- -- 58
2018-05-10 15:00:00 15.9 12 Noroeste 27 Noroeste 0 -- -- 56
2018-05-10 14:00:00 14.9 12 Noroeste 28 Noroeste 0 -- -- 62
2018-05-10 13:00:00 14.1 15 Noroeste 28 Noroeste 0 -- -- 65
2018-05-10 12:00:00 12.7 14 Noroeste 33 Norte 0 -- -- 71
2018-05-10 11:00:00 12.1 11 Noroeste 30 Norte 0 -- -- 74
2018-05-10 10:00:00 11.8 15 Norte 32 Noroeste 0 -- -- 76
2018-05-10 09:00:00 11.3 12 Norte 33 Noroeste 0 -- -- 81
2018-05-10 08:00:00 11.9 11 Norte 25 Norte 0 -- -- 78
2018-05-10 07:00:00 10.6 5 Sudeste 9 Sudeste 0 -- -- 90
2018-05-10 06:00:00 10.6 0 Calma 5 Oeste 0 -- -- 89
2018-05-10 05:00:00 10.6 0 Calma 5 Sur 0 -- -- 87
2018-05-10 04:00:00 10.6 0 Calma 4 Nordeste 0 -- -- 84
2018-05-10 03:00:00 10.5 0 Calma 12 Nordeste 0 -- -- 83
2018-05-10 02:00:00 12.4 6 Norte 21 Noroeste 0 -- -- 68
2018-05-10 01:00:00 12.8 11 Noroeste 28 Norte 0 -- -- 74
2018-05-10 00:00:00 13 7 Norte 26 Norte 0 -- -- 74
2018-05-09 23:00:00 13.5 12 Norte 27 Norte 0 -- -- 73
2018-05-09 22:00:00 13.6 12 Norte 33 Norte 0 -- -- 73
2018-05-09 21:00:00 13.4 15 Norte 30 Norte 0 -- -- 76
2018-05-09 20:00:00 13.7 10 Noroeste 26 Norte 0 -- -- 77
2018-05-09 19:00:00 14 9 Norte 34 Norte 0 -- -- 78
2018-05-09 18:00:00 14.9 14 Norte 33 Nordeste 0 -- -- 78
2018-05-09 17:00:00 15.4 14 Noroeste 40 Norte 0 -- -- 78
2018-05-09 16:00:00 17 14 Noroeste 35 Norte 0 -- -- 73
2018-05-09 15:00:00 18.2 19 Norte 37 Norte 0 -- -- 69
2018-05-09 14:00:00 18.9 18 Norte 37 Norte 0 -- -- 61
2018-05-09 13:00:00 18.7 14 Norte 30 Norte 0 -- -- 60
2018-05-09 12:00:00 18.3 11 Norte 25 Noroeste 0 -- -- 63
2018-05-09 11:00:00 16 4 Oeste 6 Oeste 0 -- -- 72
2018-05-09 10:00:00 13.4 3 Noroeste 5 Noroeste 0 -- -- 81
2018-05-09 09:00:00 11.5 0 Calma 3 Norte 0 -- -- 91
2018-05-09 08:00:00 10.3 0 Calma 4 Noroeste 0 -- -- 96
2018-05-09 07:00:00 10 0 Calma 2 Sudeste 0 -- -- 95
2018-05-09 06:00:00 10.8 0 Calma 2 Sur 0 -- -- 94
2018-05-09 05:00:00 10.8 0 Calma 3 Sudeste 0 -- -- 94
2018-05-09 04:00:00 10.9 0 Calma 4 Sur 0 -- -- 92
2018-05-09 03:00:00 11.2 0 Calma 4 Noroeste 0 -- -- 91
2018-05-09 02:00:00 12.2 0 Calma 8 Norte 0 -- -- 88
2018-05-09 01:00:00 12.8 3 Norte 8 Noroeste 0 -- -- 85
2018-05-09 00:00:00 13.1 5 Norte 15 Norte 0 -- -- 82
2018-05-08 23:00:00 13.1 2 Norte 28 Noroeste 0 -- -- 82
2018-05-08 22:00:00 13.3 8 Noroeste 21 Nordeste 0 -- -- 84
2018-05-08 21:00:00 14.7 10 Noroeste 20 Noroeste 0 -- -- 79
2018-05-08 20:00:00 16.6 7 Noroeste 22 Norte 0 -- -- 72
2018-05-08 19:00:00 16.8 6 Noroeste 18 Nordeste 0 -- -- 73
2018-05-08 18:00:00 16.9 5 Sudoeste 22 Noroeste 0 -- -- 74
2018-05-08 17:00:00 15.4 15 Norte 40 Noroeste 0 -- -- 78
2018-05-08 16:00:00 16.1 19 Norte 40 Norte 0 -- -- 76
2018-05-08 15:00:00 18.9 19 Norte 38 Norte 0 -- -- 71
2018-05-08 14:00:00 18.4 9 Norte 27 Norte 0 -- -- 74
2018-05-08 13:00:00 17.4 9 Noroeste 15 Noroeste 0 -- -- 76
2018-05-08 12:00:00 15.1 4 Norte 6 Norte 0 -- -- 86
2018-05-08 11:00:00 13.7 0 Calma 3 Noroeste 0 -- -- 87
2018-05-08 10:00:00 13 0 Calma 4 Norte 0 -- -- 87
2018-05-08 09:00:00 12.3 0 Calma 4 Norte 0 -- -- 88
2018-05-08 08:00:00 11.9 0 Calma 3 Noroeste 0 -- -- 90
2018-05-08 07:00:00 11.6 0 Calma 9 Sur 0 -- -- 91
2018-05-08 06:00:00 11.4 6 Sudeste 9 Sur 0 -- -- 92
2018-05-08 05:00:00 10.6 0 Calma 3 Oeste 0 -- -- 95
2018-05-08 04:00:00 10.2 2 Sur 3 Sudeste 0 -- -- 94
2018-05-08 03:00:00 10.9 0 Calma 2 Oeste 0 -- -- 92
2018-05-08 02:00:00 11.7 0 Calma 3 Sudoeste 0 -- -- 90
2018-05-08 01:00:00 12.9 0 Calma 4 Sudeste 0 -- -- 88
2018-05-08 00:00:00 14.5 0 Calma 4 Sudoeste 0 -- -- 84
2018-05-07 23:00:00 16.5 0 Calma 6 Noroeste 0 -- -- 78
2018-05-07 22:00:00 18.7 3 Oeste 23 Norte 0 -- -- 70
2018-05-07 21:00:00 20.6 14 Norte 32 Norte 0 -- -- 63
2018-05-07 20:00:00 22.8 13 Norte 29 Norte 0 -- -- 53
2018-05-07 19:00:00 24.2 15 Norte 30 Noroeste 0 -- -- 50
2018-05-07 18:00:00 25.4 13 Norte 32 Norte 0 -- -- 50
2018-05-07 17:00:00 26.6 14 Norte 31 Noroeste 0 -- -- 41
2018-05-07 16:00:00 27.1 11 Norte 24 Este 0 -- -- 41
2018-05-07 15:00:00 26.6 10 Norte 24 Norte 0 -- -- 42
2018-05-07 14:00:00 26.3 13 Noroeste 26 Norte 0 -- -- 45
2018-05-07 13:00:00 24.8 8 Noroeste 21 Noroeste 0 -- -- 51
2018-05-07 12:00:00 22.1 4 Este 8 Nordeste 0 -- -- 60
2018-05-07 11:00:00 18.2 3 Noroeste 5 Noroeste 0 -- -- 72
2018-05-07 10:00:00 15.1 0 Calma 3 Nordeste 0 -- -- 82
2018-05-07 09:00:00 10.2 0 Calma 2 Oeste 0 -- -- 97
2018-05-07 08:00:00 9.4 0 Calma 3 Sudeste 0 -- -- 96
2018-05-07 07:00:00 9.6 0 Calma 2 Este 0 -- -- 96
2018-05-07 06:00:00 10.2 0 Calma 2 Sudoeste 0 -- -- 95
2018-05-07 05:00:00 10.6 0 Calma 2 Sudeste 0 -- -- 94
2018-05-07 04:00:00 10.8 0 Calma 4 Oeste 0 -- -- 94
2018-05-07 03:00:00 11.6 2 Sur 3 Noroeste 0 -- -- 92
2018-05-07 02:00:00 12.5 3 Sudeste 5 Oeste 0 -- -- 91
2018-05-07 01:00:00 13.2 0 Calma 4 Sudoeste 0 -- -- 88
2018-05-07 00:00:00 14.4 0 Calma 4 Sudoeste 0 -- -- 84
2018-05-06 23:00:00 15.9 2 Sudeste 6 Sur 0 -- -- 79
2018-05-06 22:00:00 18.3 0 Calma 18 Norte 0 -- -- 69
2018-05-06 21:00:00 20.6 12 Norte 30 Norte 0 -- -- 56
2018-05-06 20:00:00 21.8 10 Norte 48 Noroeste 0 -- -- 55
2018-05-06 19:00:00 22.6 14 Norte 44 Noroeste 0 -- -- 51
2018-05-06 18:00:00 23 20 Noroeste 41 Noroeste 0 -- -- 52
2018-05-06 17:00:00 23.4 19 Noroeste 37 Noroeste 0 -- -- 53
2018-05-06 16:00:00 24.3 14 Noroeste 35 Noroeste 0 -- -- 53
2018-05-06 15:00:00 24.8 12 Norte 23 Oeste 0 -- -- 51
2018-05-06 14:00:00 24.5 8 Noroeste 24 Norte 0 -- -- 49
2018-05-06 13:00:00 23.4 6 Noroeste 14 Oeste 0 -- -- 52
2018-05-06 12:00:00 20.3 0 Calma 5 Sudeste 0 -- -- 56
2018-05-06 11:00:00 16.3 2 Nordeste 4 Este 0 -- -- 66
2018-05-06 10:00:00 12.4 0 Calma 4 Este 0 -- -- 82
2018-05-06 09:00:00 7.6 0 Calma 3 Oeste 0 -- -- 98
2018-05-06 08:00:00 6.6 0 Calma 6 Nordeste 0 -- -- 97
2018-05-06 07:00:00 6.4 0 Calma 3 Norte 0 -- -- 95
2018-05-06 06:00:00 7.3 0 Calma 4 Sur 0 -- -- 94
2018-05-06 05:00:00 8.1 0 Calma 4 Oeste 0 -- -- 94
2018-05-06 04:00:00 8.6 3 Noroeste 7 Oeste 0 -- -- 94
2018-05-06 03:00:00 8.7 4 Sudeste 7 Nordeste 0 -- -- 94
2018-05-06 02:00:00 8.8 3 Oeste 6 Este 0 -- -- 92
2018-05-06 01:00:00 9.3 3 Sur 6 Este 0 -- -- 90
2018-05-06 00:00:00 10.7 2 Sur 6 Sur 0 -- -- 85
2018-05-05 23:00:00 12.2 0 Calma 5 Sur 0 -- -- 79
2018-05-05 22:00:00 14.3 3 Sur 22 Noroeste 0 -- -- 70
2018-05-05 21:00:00 16.7 10 Norte 22 Noroeste 0 -- -- 59
2018-05-05 20:00:00 17.9 9 Norte 27 Oeste 0 -- -- 55
2018-05-05 19:00:00 19 12 Norte 35 Norte 0 -- -- 53
2018-05-05 18:00:00 19.7 16 Noroeste 31 Noroeste 0 -- -- 54
2018-05-05 17:00:00 20.2 14 Noroeste 33 Noroeste 0 -- -- 54
2018-05-05 16:00:00 20.1 13 Noroeste 36 Norte 0 -- -- 55
2018-05-05 15:00:00 19.8 13 Norte 30 Norte 0 -- -- 53
2018-05-05 14:00:00 19.2 16 Norte 35 Norte 0 -- -- 53
2018-05-05 13:00:00 18.6 11 Norte 24 Norte 0 -- -- 51
2018-05-05 12:00:00 15.5 2 Sudoeste 6 Noroeste 0 -- -- 55
2018-05-05 11:00:00 11.9 2 Sudeste 5 Norte 0 -- -- 67
2018-05-05 10:00:00 8.2 0 Calma 4 Este 0 -- -- 82
2018-05-05 09:00:00 3.6 0 Calma 3 Sudeste 0 -- -- 98
2018-05-05 08:00:00 2.4 0 Calma 2 Oeste 0 -- -- 97
2018-05-05 07:00:00 2.5 0 Calma 4 Oeste 0 -- -- 96
2018-05-05 06:00:00 2.8 0 Calma 5 Sur 0 -- -- 96
2018-05-05 05:00:00 3.3 0 Calma 3 Noroeste 0 -- -- 95
2018-05-05 04:00:00 3.8 0 Calma 3 Oeste 0 -- -- 95
2018-05-05 03:00:00 4.5 0 Calma 2 Sudeste 0 -- -- 94
2018-05-05 02:00:00 5.2 0 Calma 3 Oeste 0 -- -- 92
2018-05-05 01:00:00 6.1 0 Calma 5 Sudoeste 0 -- -- 90
2018-05-05 00:00:00 7.3 0 Calma 5 Sur 0 -- -- 87
2018-05-04 23:00:00 9.1 0 Calma 7 Sur 0 -- -- 79
2018-05-04 22:00:00 11.6 4 Norte 21 Norte 0 -- -- 69
2018-05-04 21:00:00 12.5 14 Noroeste 36 Noroeste 0 -- -- 65
2018-05-04 20:00:00 14.2 15 Norte 32 Norte 0 -- -- 55
2018-05-04 19:00:00 15.1 14 Noroeste 33 Norte 0 -- -- 53
2018-05-04 18:00:00 15.6 14 Norte 30 Norte 0 -- -- 51
2018-05-04 17:00:00 15.8 13 Norte 26 Noroeste 0 -- -- 47
2018-05-04 16:00:00 16.2 8 Norte 29 Norte 0 -- -- 53
2018-05-04 15:00:00 15.5 12 Norte 31 Noroeste 0 -- -- 54
2018-05-04 14:00:00 15 9 Norte 28 Noroeste 0 -- -- 52
2018-05-04 13:00:00 14 13 Noroeste 28 Noroeste 0 -- -- 52
2018-05-04 12:00:00 12.6 9 Noroeste 24 Noroeste 0 -- -- 55
2018-05-04 11:00:00 10.4 3 Este 10 Oeste 0 -- -- 73
2018-05-04 10:00:00 7.1 0 Calma 5 Este 0 -- -- 83
2018-05-04 09:00:00 4.9 2 Este 4 Este 0 -- -- 94
2018-05-04 08:00:00 4.7 0 Calma 5 Sudoeste 0 -- -- 92
2018-05-04 07:00:00 5.4 0 Calma 4 Norte 0 -- -- 91
2018-05-04 06:00:00 6 0 Calma 3 Oeste 0 -- -- 91
2018-05-04 05:00:00 5.9 0 Calma 10 Sur 0 -- -- 90
2018-05-04 04:00:00 6 0 Calma 6 Sudeste 0 -- -- 88
2018-05-04 03:00:00 6.8 3 Sur 12 Sur 0 -- -- 84
2018-05-04 02:00:00 7.3 7 Sur 15 Sudeste 0 -- -- 80
2018-05-04 01:00:00 9.4 5 Oeste 28 Norte 0 -- -- 69
2018-05-04 00:00:00 10.1 12 Norte 27 Noroeste 0 -- -- 62
2018-05-03 23:00:00 10.5 13 Norte 24 Norte 0 -- -- 66
2018-05-03 22:00:00 10.7 10 Norte 27 Norte 0 -- -- 65
2018-05-03 21:00:00 11.1 11 Norte 29 Norte 0 -- -- 61
2018-05-03 20:00:00 12.1 10 Norte 32 Norte 0 -- -- 58
2018-05-03 19:00:00 13.1 14 Norte 32 Norte 0 -- -- 55
2018-05-03 18:00:00 13.7 15 Norte 30 Nordeste 0 -- -- 53
2018-05-03 17:00:00 13.6 17 Nordeste 37 Nordeste 0 -- -- 54
2018-05-03 16:00:00 13.4 18 Nordeste 35 Norte 0 -- -- 56
2018-05-03 15:00:00 12.9 15 Norte 36 Nordeste 0 -- -- 60
2018-05-03 14:00:00 12.9 15 Norte 36 Nordeste 0 -- -- 57
2018-05-03 13:00:00 12.6 16 Norte 34 Norte 0 -- -- 63
2018-05-03 12:00:00 12.6 -- -- -- -- 0 -- -- --
2018-05-03 11:00:00 11.6 16 Norte 35 Norte 0 -- -- 56
2018-05-03 10:00:00 10.7 14 Norte 25 Norte 0 -- -- 59
2018-05-03 09:00:00 9.6 14 Nordeste 30 Norte 0 -- -- 64
2018-05-03 08:00:00 8.9 12 Norte 39 Norte 0.2 -- -- 78
2018-05-03 07:00:00 8.9 15 Norte 36 Norte 0 -- -- 79
2018-05-03 06:00:00 9.7 21 Nordeste 42 Nordeste 0 -- -- 79
2018-05-03 05:00:00 9.9 15 Norte 36 Nordeste 0 -- -- 80
2018-05-03 04:00:00 10.8 19 Nordeste 35 Nordeste 0.4 -- -- 80
2018-05-03 03:00:00 11 13 Norte 30 Nordeste 0.2 -- -- 84
2018-05-03 02:00:00 11.2 15 Norte 35 Nordeste 0.2 -- -- 82
2018-05-03 01:00:00 11.1 14 Norte 36 Nordeste 0.6 -- -- 84
2018-05-03 00:00:00 12 11 Norte 38 Norte 1.6 -- -- 84
2018-05-02 23:00:00 12.4 0 Calma 4 Sudoeste 1.2 -- -- 95
2018-05-02 22:00:00 12.8 2 Noroeste 8 Sudoeste 0.4 -- -- 94
2018-05-02 21:00:00 13.5 3 Sur 8 Sudeste 0.2 -- -- 91
2018-05-02 20:00:00 14.5 3 Sudoeste 6 Sudeste 0.2 -- -- 85
2018-05-02 19:00:00 14.7 4 Sur 6 Sudeste 0 -- -- 82
2018-05-02 18:00:00 14.5 0 Calma 5 Norte 0.2 -- -- 83
2018-05-02 17:00:00 14.2 0 Calma 5 Noroeste 0.4 -- -- 85
2018-05-02 16:00:00 13.7 3 Oeste 8 Nordeste 0.4 -- -- 86
2018-05-02 15:00:00 12.9 4 Norte 13 Nordeste 0.8 -- -- 86
2018-05-02 14:00:00 12.7 7 Nordeste 16 Nordeste 0 -- -- 80
2018-05-02 13:00:00 13.4 9 Nordeste 15 Nordeste 0 -- -- 69
2018-05-02 12:00:00 14.1 6 Nordeste 11 Nordeste 0 -- -- 56
2018-05-02 11:00:00 12.8 3 Noroeste 6 Oeste 0 -- -- 71
2018-05-02 10:00:00 10.7 0 Calma 6 Sudeste 0 -- -- 83
2018-05-02 09:00:00 9 3 Sudeste 5 Sudeste 0 -- -- 91
2018-05-02 08:00:00 8 0 Calma 5 Oeste 0 -- -- 94
2018-05-02 07:00:00 7.8 0 Calma 5 Oeste 0 -- -- 94
2018-05-02 06:00:00 7.8 2 Sur 4 Sudoeste 0 -- -- 94
2018-05-02 05:00:00 7.8 2 Nordeste 5 Noroeste 0 -- -- 93
2018-05-02 04:00:00 7.8 3 Sudoeste 6 Sudoeste 0 -- -- 93
2018-05-02 03:00:00 7.8 0 Calma 6 Sudeste 0 -- -- 92
2018-05-02 02:00:00 7.8 0 Calma 3 Oeste 0 -- -- 91
2018-05-02 01:00:00 8.1 0 Calma 4 Sur 0 -- -- 89
2018-05-02 00:00:00 8.6 0 Calma 6 Sudoeste 0 -- -- 86
2018-05-01 23:00:00 9.4 0 Calma 4 Sudeste 0 -- -- 81
2018-05-01 22:00:00 10.6 3 Noroeste 18 Noroeste 0 -- -- 75
2018-05-01 21:00:00 11.5 7 Norte 24 Norte 0 -- -- 68
2018-05-01 20:00:00 12.1 14 Noroeste 38 Noroeste 0 -- -- 65
2018-05-01 19:00:00 13 17 Norte 37 Norte 0 -- -- 63
2018-05-01 18:00:00 13.2 18 Norte 37 Norte 0 -- -- 62
2018-05-01 17:00:00 13.9 19 Norte 35 Norte 0 -- -- 59
2018-05-01 16:00:00 14 17 Norte 36 Noroeste 0 -- -- 58
2018-05-01 15:00:00 14.3 16 Norte 33 Norte 0 -- -- 58
2018-05-01 14:00:00 14.9 8 Norte 17 Noroeste 0 -- -- 45
2018-05-01 13:00:00 13.7 4 Norte 11 Norte 0 -- -- 44
2018-05-01 12:00:00 11.8 3 Nordeste 8 Oeste 0 -- -- 55
2018-05-01 11:00:00 8.5 2 Nordeste 6 Norte 0 -- -- 78
2018-05-01 10:00:00 5.5 2 Nordeste 9 Sudeste 0 -- -- 88
2018-05-01 09:00:00 3.8 0 Calma 10 Sur 0 -- -- 93
2018-05-01 08:00:00 3.1 6 Sudeste 9 Sur 0 -- -- 95
2018-05-01 07:00:00 3.2 3 Sudeste 7 Sudeste 0 -- -- 98
2018-05-01 06:00:00 2.9 3 Sur 5 Sudeste 0 -- -- 98
2018-05-01 05:00:00 2.8 0 Calma 7 Sudeste 0 -- -- 98
2018-05-01 04:00:00 2.8 0 Calma 4 Sudoeste 0 -- -- 97
2018-05-01 03:00:00 3.1 0 Calma 3 Sur 0 -- -- 95
2018-05-01 02:00:00 4.3 0 Calma 6 Sudoeste 0 -- -- 94
2018-05-01 01:00:00 5.5 0 Calma 7 Sur 0 -- -- 93
2018-05-01 00:00:00 6.5 4 Sudoeste 18 Noroeste 0.2 -- -- 90
2018-04-30 23:00:00 5.9 3 Sudoeste 9 Sudoeste 0.2 -- -- 93
2018-04-30 22:00:00 7.2 5 Sudeste 18 Norte 0 -- -- 85
2018-04-30 21:00:00 8.4 13 Nordeste 31 Norte 0.4 -- -- 73
2018-04-30 20:00:00 9.4 12 Nordeste 25 Nordeste 0 -- -- 69
2018-04-30 19:00:00 9.2 16 Norte 28 Norte 0.2 -- -- 73
2018-04-30 18:00:00 8.5 13 Norte 34 Norte 0.6 -- -- 77
2018-04-30 17:00:00 11.9 12 Norte 29 Norte 0.2 -- -- 53
2018-04-30 16:00:00 11.3 10 Norte 25 Norte 0 -- -- 62
2018-04-30 15:00:00 10.2 4 Oeste 12 Oeste 0 -- -- 79
2018-04-30 14:00:00 8.2 4 Norte 6 Nordeste 0.2 -- -- 85
2018-04-30 13:00:00 8 3 Este 7 Nordeste 1.2 -- -- 85
2018-04-30 12:00:00 8.1 2 Norte 8 Norte 0.6 -- -- 89
2018-04-30 11:00:00 7.8 2 Noroeste 5 Noroeste 1 -- -- 94
2018-04-30 10:00:00 7.6 0 Calma 3 Norte 0.4 -- -- 96
2018-04-30 09:00:00 7 0 Calma 4 Sudeste 0.4 -- -- 97
2018-04-30 08:00:00 6.8 4 Sudeste 5 Sur 0 -- -- 98
2018-04-30 07:00:00 6.5 0 Calma 5 Sur 0 -- -- 97
2018-04-30 06:00:00 6.6 2 Sur 6 Sur 0 -- -- 97
2018-04-30 05:00:00 6.8 0 Calma 6 Sudeste 0 -- -- 96
2018-04-30 04:00:00 7.2 0 Calma 4 Sur 0.2 -- -- 96
2018-04-30 03:00:00 7.2 0 Calma 5 Sudeste 0.2 -- -- 95
2018-04-30 02:00:00 7.5 2 Sur 5 Sudeste 0 -- -- 96
2018-04-30 01:00:00 7.4 3 Sur 4 Sur 0 -- -- 96
2018-04-30 00:00:00 7.4 0 Calma 3 Sudoeste 0.2 -- -- 96
2018-04-29 23:00:00 7.4 0 Calma 4 Sudoeste 0 -- -- 94
2018-04-29 22:00:00 7.6 3 Sudeste 7 Oeste 0.6 -- -- 92
2018-04-29 21:00:00 8 4 Sudoeste 18 Noroeste 0 -- -- 85
2018-04-29 20:00:00 8.4 7 Noroeste 28 Norte 1.4 -- -- 83
2018-04-29 19:00:00 7.9 16 Norte 35 Norte 2.2 -- -- 88
2018-04-29 18:00:00 11 10 Norte 27 Norte 0 -- -- 75
2018-04-29 17:00:00 12.5 6 Norte 21 Nordeste 0.2 -- -- 69
2018-04-29 16:00:00 12.9 4 Noroeste 26 Nordeste 0.2 -- -- 66
2018-04-29 15:00:00 14 11 Norte 25 Norte 0 -- -- 56
2018-04-29 14:00:00 14.3 11 Norte 25 Norte 0 -- -- 53
2018-04-29 13:00:00 13.9 7 Norte 21 Norte 0 -- -- 52
2018-04-29 12:00:00 13.4 9 Norte 18 Nordeste 0 -- -- 62
2018-04-29 11:00:00 10.9 0 Calma 4 Nordeste 0 -- -- 78
2018-04-29 10:00:00 9.3 0 Calma 5 Noroeste 0 -- -- 88
2018-04-29 09:00:00 8.1 0 Calma 3 Sudoeste 0 -- -- 95
2018-04-29 08:00:00 7.5 0 Calma 2 Sur 0 -- -- 97
2018-04-29 07:00:00 7.5 0 Calma 4 Sudeste 0 -- -- 97
2018-04-29 06:00:00 7.8 3 Sudeste 6 Sur 0 -- -- 97
2018-04-29 05:00:00 7.6 2 Sur 4 Sur 0 -- -- 97
2018-04-29 04:00:00 7.5 0 Calma 6 Sudeste 0 -- -- 97
2018-04-29 03:00:00 7.8 2 Noroeste 4 Sur 0 -- -- 96
2018-04-29 02:00:00 8 2 Sur 6 Sur 0 -- -- 96
2018-04-29 01:00:00 8.1 0 Calma 5 Sudoeste 0.2 -- -- 95
2018-04-29 00:00:00 8.4 0 Calma 5 Noroeste 0 -- -- 95
2018-04-28 23:00:00 8.4 3 Sudoeste 5 Sudeste 0 -- -- 94
2018-04-28 22:00:00 8.5 2 Sur 4 Nordeste 0 -- -- 95
2018-04-28 21:00:00 8.8 0 Calma 6 Nordeste 0.2 -- -- 92
2018-04-28 20:00:00 9.3 0 Calma 19 Noroeste 1.6 -- -- 89
2018-04-28 19:00:00 10.2 7 Noroeste 18 Norte 0 -- -- 76
2018-04-28 18:00:00 10 4 Noroeste 17 Norte 1.2 -- -- 90
2018-04-28 17:00:00 10.2 9 Norte 22 Noroeste 0.2 -- -- 83
2018-04-28 16:00:00 10.6 11 Noroeste 25 Noroeste 0 -- -- 78
2018-04-28 15:00:00 11.4 8 Noroeste 23 Noroeste 0 -- -- 73
2018-04-28 14:00:00 11.6 8 Noroeste 18 Norte 0 -- -- 72
2018-04-28 13:00:00 11.3 8 Norte 15 Norte 0 -- -- 74
2018-04-28 12:00:00 10.9 3 Oeste 7 Oeste 0 -- -- 77
2018-04-28 11:00:00 9.7 3 Sur 5 Sur 0 -- -- 81
2018-04-28 10:00:00 9.1 0 Calma 3 Sudoeste 0 -- -- 85
2018-04-28 09:00:00 8.5 0 Calma 3 Oeste 0 -- -- 92
2018-04-28 08:00:00 8.2 0 Calma 4 Oeste 0 -- -- 91
2018-04-28 07:00:00 8.2 0 Calma 3 Sudoeste 0 -- -- 91
2018-04-28 06:00:00 8.3 0 Calma 3 Sudoeste 0 -- -- 91
2018-04-28 05:00:00 8.5 0 Calma 3 Sudoeste 0 -- -- 90
2018-04-28 04:00:00 8.7 2 Sur 6 Sudoeste 0 -- -- 90
2018-04-28 03:00:00 8.9 3 Sur 7 Sudoeste 0 -- -- 88
2018-04-28 02:00:00 9.1 4 Sur 13 Norte 0 -- -- 88
2018-04-28 01:00:00 9.3 3 Oeste 15 Noroeste 0 -- -- 81
2018-04-28 00:00:00 9 2 Noroeste 9 Norte 0 -- -- 89
2018-04-27 23:00:00 9.4 5 Noroeste 17 Nordeste 0 -- -- 82
2018-04-27 22:00:00 10.3 10 Noroeste 22 Noroeste 0 -- -- 75
2018-04-27 21:00:00 10.3 9 Norte 31 Noroeste 0 -- -- 75
2018-04-27 20:00:00 10.4 9 Norte 19 Norte 0 -- -- 76
2018-04-27 19:00:00 10.9 10 Norte 24 Norte 0 -- -- 75
2018-04-27 18:00:00 11.1 10 Norte 28 Noroeste 0 -- -- 76
2018-04-27 17:00:00 11.5 11 Norte 29 Norte 0 -- -- 74
2018-04-27 16:00:00 11.8 13 Norte 36 Norte 0 -- -- 75
2018-04-27 15:00:00 12.5 14 Noroeste 36 Norte 0 -- -- 75
2018-04-27 14:00:00 13.3 14 Norte 37 Noroeste 0 -- -- 74
2018-04-27 13:00:00 13.8 14 Noroeste 36 Norte 0 -- -- 72
2018-04-27 12:00:00 15.8 15 Norte 30 Norte 0 -- -- 67
2018-04-27 11:00:00 14.2 3 Sur 6 Sudeste 0 -- -- 70
2018-04-27 10:00:00 9.7 0 Calma 4 Este 0 -- -- 89
2018-04-27 09:00:00 6.1 0 Calma 4 Oeste 0 -- -- 98
2018-04-27 08:00:00 5.9 0 Calma 5 Nordeste 0 -- -- 97
2018-04-27 07:00:00 5.8 0 Calma 5 Noroeste 0 -- -- 97
2018-04-27 06:00:00 6.1 3 Sur 6 Sudeste 0 -- -- 96
2018-04-27 05:00:00 6.3 0 Calma 4 Sudoeste 0 -- -- 95
2018-04-27 04:00:00 7.1 0 Calma 4 Este 0 -- -- 95
2018-04-27 03:00:00 7.9 0 Calma 4 Oeste 0 -- -- 93
2018-04-27 02:00:00 9 0 Calma 7 Oeste 0 -- -- 91
2018-04-27 01:00:00 8.8 0 Calma 4 Sudoeste 0 -- -- 92
2018-04-27 00:00:00 9 0 Calma 4 Sudoeste 0 -- -- 89
2018-04-26 23:00:00 10.5 3 Sur 5 Sudoeste 0 -- -- 84
2018-04-26 22:00:00 12 2 Sudeste 15 Norte 0 -- -- 79
2018-04-26 21:00:00 13.4 9 Norte 30 Norte 0 -- -- 73
2018-04-26 20:00:00 15.3 10 Noroeste 26 Norte 0 -- -- 67
2018-04-26 19:00:00 16.6 10 Norte 25 Norte 0 -- -- 62
2018-04-26 18:00:00 17 11 Noroeste 28 Noroeste 0 -- -- 61
2018-04-26 17:00:00 17.1 11 Norte 33 Norte 0 -- -- 60
2018-04-26 16:00:00 16.4 16 Norte 31 Noroeste 0 -- -- 60
2018-04-26 15:00:00 16.8 12 Norte 24 Noroeste 0 -- -- 55
2018-04-26 14:00:00 16.2 10 Norte 18 Noroeste 0 -- -- 55
2018-04-26 13:00:00 15.1 7 Norte 19 Nordeste 0 -- -- 63
2018-04-26 12:00:00 14.2 6 Norte 14 Norte 0 -- -- 63
2018-04-26 11:00:00 13.6 2 Norte 8 Sur 0 -- -- 70
2018-04-26 10:00:00 13.2 4 Sur 8 Sudeste 0 -- -- 72
2018-04-26 09:00:00 10.7 2 Sudeste 8 Sur 0 -- -- 87
2018-04-26 08:00:00 10 4 Sudeste 9 Sur 0 -- -- 92
2018-04-26 07:00:00 10 4 Sur 8 Sudoeste 0 -- -- 92
2018-04-26 06:00:00 10.5 3 Sur 6 Noroeste 0 -- -- 88
2018-04-26 05:00:00 10.8 2 Nordeste 13 Noroeste 0 -- -- 84
2018-04-26 04:00:00 11.2 5 Norte 12 Norte 0 -- -- 80
2018-04-26 03:00:00 11.3 4 Norte 10 Norte 0 -- -- 81
2018-04-26 02:00:00 11.8 4 Noroeste 19 Noroeste 0 -- -- 79
2018-04-26 01:00:00 12.1 7 Noroeste 21 Noroeste 0 -- -- 78
2018-04-26 00:00:00 12.3 9 Norte 24 Noroeste 0 -- -- 77
2018-04-25 23:00:00 12.4 12 Noroeste 31 Noroeste 0 -- -- 77
2018-04-25 22:00:00 12.7 12 Norte 31 Norte 0 -- -- 76
2018-04-25 21:00:00 13 12 Noroeste 34 Norte 0 -- -- 77
2018-04-25 20:00:00 13.8 17 Noroeste 38 Noroeste 0 -- -- 75
2018-04-25 19:00:00 14 17 Noroeste 34 Norte 0 -- -- 76
2018-04-25 18:00:00 14.6 12 Norte 32 Noroeste 0 -- -- 75
2018-04-25 17:00:00 14.5 15 Norte 40 Norte 0 -- -- 76
2018-04-25 16:00:00 15.8 15 Noroeste 37 Norte 0 -- -- 73
2018-04-25 15:00:00 16.3 17 Norte 32 Norte 0 -- -- 73
2018-04-25 14:00:00 16.3 11 Norte 29 Norte 0 -- -- 73
2018-04-25 13:00:00 15.7 13 Norte 23 Norte 0 -- -- 74
2018-04-25 12:00:00 15.6 7 Norte 23 Norte 0 -- -- 76
2018-04-25 11:00:00 15.6 5 Nordeste 10 Nordeste 0 -- -- 79
2018-04-25 10:00:00 14.6 0 Calma 5 Sudeste 0 -- -- 84
2018-04-25 09:00:00 14 0 Calma 4 Sudoeste 0 -- -- 87
2018-04-25 08:00:00 13.9 4 Norte 7 Norte 0 -- -- 85
2018-04-25 07:00:00 14.2 2 Norte 5 Sur 0 -- -- 85
2018-04-25 06:00:00 14.3 2 Sudeste 7 Nordeste 0 -- -- 84
2018-04-25 05:00:00 14.1 2 Noroeste 9 Nordeste 0 -- -- 87
2018-04-25 04:00:00 14.3 6 Sur 9 Sur 0 -- -- 85
2018-04-25 03:00:00 14.7 4 Norte 27 Noroeste 0 -- -- 81
2018-04-25 02:00:00 14.6 15 Noroeste 34 Norte 0 -- -- 83
2018-04-25 01:00:00 12.8 0 Calma 3 Sudeste 0 -- -- 92
2018-04-25 00:00:00 13.1 0 Calma 4 Sur 0 -- -- 89
2018-04-24 23:00:00 14.8 2 Sudeste 9 Norte 0 -- -- 86
2018-04-24 22:00:00 15 5 Noroeste 35 Norte 0 -- -- 85
2018-04-24 21:00:00 15.8 13 Norte 34 Nordeste 0 -- -- 81
2018-04-24 20:00:00 17.8 14 Norte 36 Noroeste 0 -- -- 72
2018-04-24 19:00:00 21.5 19 Norte 42 Norte 0 -- -- 58
2018-04-24 18:00:00 23.5 15 Noroeste 36 Norte 0 -- -- 52
2018-04-24 17:00:00 24.9 13 Norte 35 Norte 0 -- -- 46
2018-04-24 16:00:00 24.3 18 Norte 31 Norte 0 -- -- 51
2018-04-24 15:00:00 23.3 4 Nordeste 24 Norte 0 -- -- 57
2018-04-24 14:00:00 20.8 7 Norte 23 Noroeste 0 -- -- 63
2018-04-24 13:00:00 19.5 9 Norte 21 Norte 0 -- -- 69
2018-04-24 12:00:00 18.2 8 Nordeste 14 Nordeste 0 -- -- 69
2018-04-24 11:00:00 15.3 6 Norte 10 Norte 0 -- -- 77
2018-04-24 10:00:00 12.9 3 Sudeste 10 Sur 0 -- -- 87
2018-04-24 09:00:00 11.9 7 Sur 13 Sur 0 -- -- 89
2018-04-24 08:00:00 12 7 Sur 12 Sur 0 -- -- 89
2018-04-24 07:00:00 12.4 6 Sur 12 Sur 0 -- -- 89
2018-04-24 06:00:00 12.8 4 Sudeste 10 Sur 0 -- -- 88
2018-04-24 05:00:00 13.1 5 Oeste 10 Sudoeste 0 -- -- 89
2018-04-24 04:00:00 13.4 2 Oeste 8 Oeste 0 -- -- 89
2018-04-24 03:00:00 13.4 0 Calma 4 Sur 0 -- -- 90
2018-04-24 02:00:00 13.3 0 Calma 2 Oeste 0 -- -- 91
2018-04-24 01:00:00 13.3 0 Calma 9 Sudeste 0 -- -- 90
2018-04-24 00:00:00 13.1 0 Calma 9 Sudeste 0 -- -- 90
2018-04-23 23:00:00 12.8 3 Sur 5 Sudoeste 0 -- -- 90
2018-04-23 22:00:00 13.3 3 Nordeste 7 Este 0 -- -- 88
2018-04-23 21:00:00 14.8 2 Noroeste 22 Norte 0 -- -- 83
2018-04-23 20:00:00 15.1 8 Norte 34 Noroeste 0 -- -- 82
2018-04-23 19:00:00 15.6 17 Norte 44 Norte 0 -- -- 80
2018-04-23 18:00:00 16 24 Norte 49 Norte 0 -- -- 80
2018-04-23 17:00:00 17 11 Norte 49 Norte 0 -- -- 76
2018-04-23 16:00:00 18.1 20 Norte 40 Norte 0 -- -- 73
2018-04-23 15:00:00 19.3 11 Norte 22 Norte 0 -- -- 69
2018-04-23 14:00:00 18.4 10 Norte 24 Norte 0 -- -- 71
2018-04-23 13:00:00 18 8 Nordeste 12 Nordeste 0 -- -- 68
2018-04-23 12:00:00 16.5 3 Noroeste 7 Noroeste 0 -- -- 75
2018-04-23 11:00:00 15.2 2 Sudoeste 6 Norte 0 -- -- 80
2018-04-23 10:00:00 14.4 3 Norte 12 Norte 0 -- -- 82
2018-04-23 09:00:00 14 5 Norte 14 Nordeste 0 -- -- 84
2018-04-23 08:00:00 13.5 3 Noroeste 11 Noroeste 0 -- -- 88
2018-04-23 07:00:00 13.6 5 Norte 12 Noroeste 0 -- -- 89
2018-04-23 06:00:00 13.4 2 Noroeste 8 Nordeste 0 -- -- 91
2018-04-23 05:00:00 13.6 0 Calma 6 Noroeste 0 -- -- 90
2018-04-23 04:00:00 14.3 0 Calma 9 Sudeste 0 -- -- 87
2018-04-23 03:00:00 14.1 2 Sudeste 3 Este 0 -- -- 88
2018-04-23 02:00:00 14.1 2 Noroeste 8 Norte 0 -- -- 88
2018-04-23 01:00:00 14.5 2 Norte 10 Norte 0 -- -- 86
2018-04-23 00:00:00 14.5 4 Nordeste 9 Nordeste 0 -- -- 86
2018-04-22 23:00:00 14.7 2 Norte 35 Noroeste 0 -- -- 84
2018-04-22 22:00:00 14.7 14 Norte 33 Noroeste 0 -- -- 84
2018-04-22 21:00:00 15.9 12 Noroeste 36 Noroeste 0 -- -- 78
2018-04-22 20:00:00 17.2 15 Norte 46 Noroeste 0 -- -- 72
2018-04-22 19:00:00 19.8 16 Norte 34 Norte 0 -- -- 62
2018-04-22 18:00:00 22 7 Norte 23 Norte 0 -- -- 56
2018-04-22 17:00:00 24.1 12 Noroeste 29 Norte 0 -- -- 44
2018-04-22 16:00:00 22.7 9 Norte 16 Norte 0 -- -- 52
2018-04-22 15:00:00 21.2 5 Nordeste 10 Noroeste 0 -- -- 55
2018-04-22 14:00:00 20.6 2 Oeste 8 Noroeste 0 -- -- 56
2018-04-22 13:00:00 19.7 0 Calma 5 Sur 0 -- -- 59
2018-04-22 12:00:00 16.4 3 Sur 5 Sudoeste 0 -- -- 64
2018-04-22 11:00:00 13.7 0 Calma 4 Sur 0 -- -- 77
2018-04-22 10:00:00 12 0 Calma 3 Sudoeste 0 -- -- 81
2018-04-22 09:00:00 10.2 0 Calma 4 Noroeste 0 -- -- 91
2018-04-22 08:00:00 8.6 3 Noroeste 9 Sur 0 -- -- 94
2018-04-22 07:00:00 8.4 3 Oeste 8 Sur 0 -- -- 94
2018-04-22 06:00:00 8.8 0 Calma 6 Sur 0 -- -- 93
2018-04-22 05:00:00 9.4 3 Sudeste 5 Este 0 -- -- 91
2018-04-22 04:00:00 10.8 0 Calma 6 Sur 0 -- -- 87
2018-04-22 03:00:00 12.1 0 Calma 3 Sur 0 -- -- 84
2018-04-22 02:00:00 12.6 0 Calma 4 Noroeste 0 -- -- 83
2018-04-22 01:00:00 13.1 0 Calma 10 Sudeste 0 -- -- 80
2018-04-22 00:00:00 15 0 Calma 15 Sudeste 0 -- -- 72